CheckWX is a tool to help pilots better visualize weather data.  It is not intended as a substitute for an official pre-flight weather briefing.

23:40:24 UTC

KMKG TAF
Muskegon County Airport
Muskegon, Michigan, USA
KMKG 062325Z 0700/0724 34006KT P6SM BKN035 FM070200 33005KT P6SM SCT035 BKN150 FM071200 18007KT P6SM OVC035 FM071700 22010G18KT P6SM OVC050

Dec-7@
00:00 UTC

Dec-7 @ 00:00 UTC

Dec-7@
02:00 UTC

Dec-7 @ 02:00 UTC

KMKG 062325Z 0700/0724 34006KT P6SM BKN035
Wind
  • 340° at 6 KTS
Cloud Levels
  • Broken at 3,500' AGL

Dec-7@
02:00 UTC

Dec-7 @ 02:00 UTC

Dec-7@
12:00 UTC

Dec-7 @ 12:00 UTC

FM070200 33005KT P6SM SCT035 BKN150

From

From Standard forecast or significant change

Wind
  • 330° at 5 KTS
Cloud Levels
  • Scattered at 3,500' AGL
  • Broken at 15,000' AGL

Dec-7@
12:00 UTC

Dec-7 @ 12:00 UTC

Dec-7@
17:00 UTC

Dec-7 @ 17:00 UTC

FM071200 18007KT P6SM OVC035

From

From Standard forecast or significant change

Wind
  • 180° at 7 KTS
Cloud Levels
  • Overcast at 3,500' AGL

Dec-7@
17:00 UTC

Dec-7 @ 17:00 UTC

Dec-8@
00:00 UTC

Dec-8 @ 00:00 UTC

FM071700 22010G18KT P6SM OVC050

From

From Standard forecast or significant change

Wind
  • 220° at 10 KTS
  • {Gusting to 18 KTS
Cloud Levels
  • Overcast at 5,000' AGL